Time;durP1;ratioP1;P1;durP2;ratioP2;P2;SDS_P1;SDS_P2;PMS_P1;PMS_P2;Temp;Humidity;BMP_temperature;BMP_pressure;BME280_temperature;BME280_humidity;BME280_pressure;Samples;Min_cycle;Max_cycle;Signal;HPM_P1;HPM_P2
2021/05/04 15:23:19;;;;;;;;;;;;;;;15.24;44.37;99002.19;146948;1135;129051;-76
2021/05/04 15:32:02;;;;;;;5.55;3.90;;;;;;;15.19;45.04;98991.23;147958;1096;2727287;-71
2021/05/04 15:35:07;;;;;;;6.30;4.30;;;;;;;15.20;44.76;99000.12;153728;1104;103125;-73
2021/05/04 15:38:11;;;;;;;6.63;4.23;;;;;;;15.20;45.23;99002.80;155553;1100;103142;-73
2021/05/04 15:41:14;;;;;;;6.00;4.30;;;;;;;15.23;45.19;98997.02;153748;1098;103222;-71
2021/05/04 15:44:18;;;;;;;6.13;4.60;;;;;;;15.24;45.02;98994.13;153674;1098;103211;-72
2021/05/04 15:47:25;;;;;;;6.97;5.13;;;;;;;15.25;45.18;98989.56;153699;1104;103161;-71
2021/05/04 15:50:37;;;;;;;8.50;4.90;;;;;;;15.22;45.47;98982.77;153641;1100;103136;-71
2021/05/04 15:54:04;;;;;;;87.55;58.20;;;;;;;15.21;45.68;98954.23;153650;1104;103134;-72
2021/05/04 16:06:15;;;;;;;;;;;;;;;15.22;45.85;98950.52;153696;1104;103582;-70
2021/05/04 16:07:18;;;;;;;14.83;9.37;;;;;;;15.22;45.71;98952.36;153476;1100;103122;-71
2021/05/04 16:10:21;;;;;;;12.50;7.57;;;;;;;15.20;45.70;98944.51;153715;1104;103249;-71
2021/05/04 16:13:25;;;;;;;11.60;6.80;;;;;;;15.17;45.71;98941.45;153821;1098;103203;-71
2021/05/04 16:16:29;;;;;;;9.87;5.97;;;;;;;15.12;45.86;98942.08;153690;1100;103307;-72
2021/05/04 16:19:39;;;;;;;16.37;7.37;;;;;;;15.05;46.01;98931.38;153714;1104;103177;-74
2021/05/04 16:22:47;;;;;;;17.65;9.95;;;;;;;14.98;45.54;98935.95;153877;1104;103139;-75
2021/05/04 16:26:10;;;;;;;13.90;7.87;;;;;;;14.92;46.03;98937.63;153786;1104;103206;-71
2021/05/04 16:29:24;;;;;;;10.20;5.50;;;;;;;14.88;45.80;98933.73;153947;1105;103205;-74
2021/05/04 16:32:29;;;;;;;7.40;5.30;;;;;;;14.87;45.65;98933.94;153684;1104;103238;-73
2021/05/04 16:35:32;;;;;;;7.80;4.83;;;;;;;14.87;45.72;98932.06;153845;1104;103204;-72
2021/05/04 16:38:36;;;;;;;7.13;4.80;;;;;;;14.87;45.96;98933.94;153716;1104;103135;-69
2021/05/04 16:41:40;;;;;;;10.10;5.77;;;;;;;14.84;45.21;98923.64;153512;1100;103211;-72
2021/05/04 16:44:44;;;;;;;6.05;4.65;;;;;;;14.80;45.27;98917.88;153778;1104;103137;-75
2021/05/04 16:47:47;;;;;;;7.53;5.20;;;;;;;14.80;45.24;98919.70;153949;1104;103304;-73
2021/05/04 16:50:51;;;;;;;6.53;4.17;;;;;;;14.82;44.90;98923.00;153751;1104;103203;-72
2021/05/04 16:53:55;;;;;;;6.50;4.17;;;;;;;14.85;44.67;98919.91;153722;1104;103256;-70
2021/05/04 16:56:58;;;;;;;7.80;4.30;;;;;;;14.85;45.24;98920.72;153337;1098;103135;-73
2021/05/04 17:00:02;;;;;;;6.00;3.70;;;;;;;14.87;45.00;98926.70;153845;1104;103203;-72
2021/05/04 17:03:06;;;;;;;7.15;4.35;;;;;;;14.86;44.73;98926.94;153658;1104;103285;-70
2021/05/04 17:06:20;;;;;;;5.40;3.57;;;;;;;14.87;44.57;98928.56;153705;1100;103192;-71
2021/05/04 17:12:54;;;;;;;5.10;3.63;;;;;;;14.82;44.40;98926.53;153826;1104;104734;-72
2021/05/04 17:15:58;;;;;;;8.75;6.25;;;;;;;14.80;44.56;98933.13;153782;1104;103213;-74
2021/05/04 17:19:02;;;;;;;7.47;4.60;;;;;;;14.76;44.47;98938.13;153727;1105;103294;-73
2021/05/04 17:22:05;;;;;;;6.25;3.55;;;;;;;14.71;43.88;98943.30;153649;1104;103505;-72
2021/05/04 17:25:10;;;;;;;6.00;3.35;;;;;;;14.69;44.45;98950.75;153665;1104;103231;-72
2021/05/04 17:28:14;;;;;;;4.87;3.03;;;;;;;14.63;44.54;98941.68;153702;1099;103141;-71
2021/05/04 17:31:18;;;;;;;3.85;2.80;;;;;;;14.61;44.28;98940.25;153691;1104;103493;-69
2021/05/04 17:34:21;;;;;;;4.07;2.70;;;;;;;14.54;44.45;98930.30;153593;1104;103282;-71
2021/05/04 17:37:25;;;;;;;4.67;2.30;;;;;;;14.48;44.27;98908.87;153564;1104;103144;-70
2021/05/04 17:40:29;;;;;;;3.20;2.20;;;;;;;14.43;44.30;98905.98;153740;1104;103138;-72
2021/05/04 17:43:33;;;;;;;5.33;2.37;;;;;;;14.37;44.08;98906.83;153904;1104;103170;-69
2021/05/04 17:46:36;;;;;;;3.33;2.50;;;;;;;14.31;44.32;98905.81;153476;1099;103138;-71
2021/05/04 17:49:40;;;;;;;4.07;2.27;;;;;;;14.26;44.35;98903.77;153725;1104;103285;-71
2021/05/04 17:52:45;;;;;;;4.23;2.40;;;;;;;14.22;44.32;98905.23;153589;1104;103301;-71
2021/05/04 17:55:49;;;;;;;3.40;2.30;;;;;;;14.18;44.37;98887.88;153496;1100;103134;-71
2021/05/04 17:58:53;;;;;;;3.33;2.40;;;;;;;14.14;44.61;98887.50;153492;1099;103205;-71
2021/05/04 18:01:56;;;;;;;4.35;2.50;;;;;;;14.09;44.39;98879.25;153628;1104;103206;-70
2021/05/04 18:05:00;;;;;;;4.27;2.33;;;;;;;14.05;44.35;98888.75;153542;1100;103230;-73
2021/05/04 18:08:06;;;;;;;3.97;2.40;;;;;;;14.03;44.27;98889.97;153687;1099;103605;-77
2021/05/04 18:11:13;;;;;;;3.57;2.30;;;;;;;13.99;44.31;98884.23;153667;1099;103203;-74
2021/05/04 18:21:04;;;;;;;5.83;2.50;;;;;;;13.91;43.96;98885.27;153593;1104;103310;-73
2021/05/04 18:24:09;;;;;;;5.37;2.40;;;;;;;13.90;44.08;98880.11;153764;1104;103131;-73
2021/05/04 18:27:13;;;;;;;4.13;2.93;;;;;;;13.89;43.96;98881.95;153531;1105;103684;-69
2021/05/04 18:30:21;;;;;;;3.57;2.47;;;;;;;13.89;43.93;98881.95;153541;1104;103173;-71
2021/05/04 18:33:27;;;;;;;3.50;2.20;;;;;;;13.87;44.09;98875.16;153533;1104;103144;-68
2021/05/04 18:36:34;;;;;;;4.27;2.70;;;;;;;13.86;44.05;98870.84;153466;1104;103283;-73
2021/05/04 18:43:36;;;;;;;5.55;3.30;;;;;;;13.81;44.17;98870.63;153523;1104;103120;-67
2021/05/04 18:47:10;;;;;;;6.43;4.40;;;;;;;13.78;44.64;98869.20;153443;1104;103134;-70
2021/05/04 19:00:47;;;;;;;5.50;3.20;;;;;;;13.66;44.68;98863.61;153498;1104;103234;-76
2021/05/04 19:12:02;;;;;;;6.50;4.17;;;;;;;13.53;45.03;98836.85;153957;1099;103189;-68
2021/05/04 19:21:45;;;;;;;5.90;4.00;;;;;;;13.42;45.36;98830.25;153947;1096;103123;-76
2021/05/04 19:22:28;;;;;;;7.73;4.90;;;;;;;13.38;45.59;98823.66;154101;1101;103120;-75
2021/05/04 19:29:05;;;;;;;8.90;5.20;;;;;;;13.28;45.32;98823.19;153993;1097;103224;-72
2021/05/04 20:06:22;;;;;;;7.37;4.53;;;;;;;12.91;46.71;98814.72;154025;1096;103209;-75
2021/05/04 20:09:36;;;;;;;9.37;4.83;;;;;;;12.90;46.72;98813.90;154108;1101;103139;-75
2021/05/04 20:12:40;;;;;;;8.97;4.83;;;;;;;12.89;46.56;98814.91;153962;1101;103211;-75
2021/05/04 20:15:47;;;;;;;7.40;4.53;;;;;;;12.90;46.80;98815.77;153957;1101;103210;-75
2021/05/04 20:18:52;;;;;;;7.57;4.70;;;;;;;12.87;46.86;98806.27;153982;1101;103185;-75
2021/05/04 20:21:56;;;;;;;7.23;4.63;;;;;;;12.85;46.66;98802.16;153941;1097;103120;-76
2021/05/04 20:25:00;;;;;;;6.37;4.23;;;;;;;12.84;47.35;98804.02;153951;1101;103182;-75
2021/05/04 20:28:05;;;;;;;7.10;4.43;;;;;;;12.83;47.35;98798.86;154002;1101;103132;-76
2021/05/04 20:31:08;;;;;;;6.80;4.60;;;;;;;12.82;47.27;98802.55;154041;1101;103143;-73
2021/05/04 20:34:12;;;;;;;10.25;6.10;;;;;;;12.79;46.99;98809.14;154009;1096;103230;-73
2021/05/04 20:37:15;;;;;;;7.97;5.60;;;;;;;12.77;47.16;98812.02;153973;1097;103141;-73
2021/05/04 20:40:19;;;;;;;12.40;8.87;;;;;;;12.77;46.99;98816.55;154006;1101;103250;-75
2021/05/04 20:43:23;;;;;;;25.33;16.00;;;;;;;12.77;47.55;98805.84;154025;1101;103208;-74
2021/05/04 20:46:27;;;;;;;34.60;24.93;;;;;;;12.77;47.68;98805.84;153990;1101;103145;-74
2021/05/04 20:49:30;;;;;;;21.53;16.50;;;;;;;12.77;47.53;98813.88;153970;1096;103267;-74
2021/05/04 20:52:34;;;;;;;20.15;14.10;;;;;;;12.75;47.87;98813.25;153970;1101;103234;-74
2021/05/04 20:55:37;;;;;;;13.93;9.30;;;;;;;12.74;47.49;98816.94;153947;1097;103208;-75
2021/05/04 20:58:41;;;;;;;12.17;8.43;;;;;;;12.74;47.88;98816.94;153960;1101;103493;-74
2021/05/04 21:01:44;;;;;;;9.00;6.63;;;;;;;12.72;48.15;98824.35;153972;1096;103118;-74
2021/05/04 21:04:48;;;;;;;10.53;7.00;;;;;;;12.71;47.92;98822.72;153919;1097;103213;-74
2021/05/04 21:07:52;;;;;;;20.05;14.50;;;;;;;12.71;48.32;98820.05;153874;1096;103761;-74
2021/05/04 21:11:02;;;;;;;12.65;9.15;;;;;;;12.66;48.37;98817.95;154008;1096;103199;-74
2021/05/04 21:14:05;;;;;;;11.77;6.87;;;;;;;12.64;48.92;98821.87;153928;1101;103126;-74
2021/05/04 21:17:09;;;;;;;8.90;5.83;;;;;;;12.58;48.65;98824.31;153954;1096;103204;-74
2021/05/04 21:20:20;;;;;;;11.75;8.15;;;;;;;12.57;48.62;98816.52;153926;1101;103292;-74
2021/05/04 21:27:03;;;;;;;9.90;6.50;;;;;;;12.56;49.73;98806.82;153991;1097;103202;-77
2021/05/04 21:30:10;;;;;;;72.27;43.67;;;;;;;12.54;49.65;98806.20;153940;1101;103227;-75
2021/05/04 21:33:14;;;;;;;37.70;22.20;;;;;;;12.51;49.82;98819.97;153965;1096;103112;-75
2021/05/04 21:36:17;;;;;;;26.40;16.90;;;;;;;12.48;49.83;98825.73;153899;1101;103292;-75
2021/05/04 21:39:21;;;;;;;12.60;8.23;;;;;;;12.42;50.22;98822.02;153980;1101;103202;-75
2021/05/04 21:42:25;;;;;;;12.63;7.20;;;;;;;12.39;50.54;98822.40;154006;1097;103200;-76
2021/05/04 21:45:29;;;;;;;11.43;6.13;;;;;;;12.38;50.34;98831.47;153931;1101;103155;-76
2021/05/04 21:48:33;;;;;;;48.00;18.55;;;;;;;12.30;50.78;98831.64;153993;1101;103128;-76
2021/05/04 21:51:36;;;;;;;34.50;13.60;;;;;;;12.29;50.35;98835.33;153941;1096;103228;-76
2021/05/04 21:54:43;;;;;;;26.77;11.87;;;;;;;12.28;51.28;98839.02;153975;1101;103210;-78
2021/05/04 21:57:47;;;;;;;12.30;7.60;;;;;;;12.28;50.64;98845.20;153979;1096;103124;-76
2021/05/04 22:00:51;;;;;;;10.13;5.90;;;;;;;12.27;50.38;98840.88;153980;1097;103139;-76
2021/05/04 22:03:55;;;;;;;7.00;4.87;;;;;;;12.31;50.45;98830.60;153989;1101;103162;-75
2021/05/04 22:06:59;;;;;;;35.20;16.37;;;;;;;12.38;50.18;98834.95;153938;1101;103215;-76
2021/05/04 22:10:04;;;;;;;10.23;6.30;;;;;;;12.44;50.56;98819.95;153971;1096;103139;-76
2021/05/04 22:13:12;;;;;;;8.10;5.30;;;;;;;12.50;50.76;98821.83;153940;1101;103203;-76
2021/05/04 22:29:49;;;;;;;4.55;3.65;;;;;;;12.66;52.17;98791.19;153954;1101;103318;-76
2021/05/04 22:36:18;;;;;;;4.13;3.03;;;;;;;12.63;53.11;98778.23;153791;1101;103167;-76
2021/05/04 22:39:22;;;;;;;3.93;3.00;;;;;;;12.61;53.99;98774.94;153953;1101;103204;-76
2021/05/04 22:42:27;;;;;;;3.80;3.10;;;;;;;12.60;53.22;98783.16;153980;1096;103318;-76
2021/05/04 22:45:52;;;;;;;4.27;3.10;;;;;;;12.60;53.07;98789.33;153946;1101;103203;-75
2021/05/04 23:16:05;;;;;;;3.03;2.73;;;;;;;12.40;53.99;98751.84;153643;1104;103210;-76
2021/05/04 23:19:08;;;;;;;5.53;2.77;;;;;;;12.35;55.56;98755.09;153911;1097;103202;-77
2021/05/04 23:22:12;;;;;;;3.73;2.73;;;;;;;12.29;54.47;98749.74;153932;1101;103202;-76
2021/05/04 23:25:16;;;;;;;3.40;2.90;;;;;;;12.26;55.18;98742.95;154092;1097;103216;-75
2021/05/04 23:28:19;;;;;;;3.93;2.90;;;;;;;12.22;54.90;98735.52;154052;1097;103256;-76
2021/05/04 23:31:23;;;;;;;3.53;2.80;;;;;;;12.17;54.68;98736.13;154052;1101;103197;-75
2021/05/04 23:34:27;;;;;;;4.27;2.93;;;;;;;12.14;54.50;98742.72;154017;1101;103208;-76
2021/05/04 23:37:31;;;;;;;3.90;3.10;;;;;;;12.10;54.74;98741.44;154066;1096;103131;-75
2021/05/04 23:40:34;;;;;;;3.53;2.93;;;;;;;12.10;54.98;98735.28;154082;1096;103200;-76
2021/05/04 23:43:38;;;;;;;3.27;2.43;;;;;;;12.06;55.50;98734.85;154099;1097;103132;-75
2021/05/04 23:46:42;;;;;;;3.53;3.07;;;;;;;12.06;55.48;98734.03;153982;1097;103157;-76
2021/05/04 23:49:45;;;;;;;3.77;3.07;;;;;;;12.03;55.56;98739.77;153997;1101;103322;-74
2021/05/04 23:52:49;;;;;;;3.60;2.70;;;;;;;12.00;56.31;98735.66;154008;1101;103150;-75
2021/05/04 23:55:52;;;;;;;2.95;2.60;;;;;;;12.01;56.20;98741.81;154091;1096;103135;-76
2021/05/04 23:58:56;;;;;;;4.15;3.10;;;;;;;12.02;56.01;98738.95;154079;1101;103233;-75
